sensor_id;sensor_type;location;lat;lon;timestamp;P1;durP1;ratioP1;P2;durP2;ratioP2
22060;SDS011;11194;48.092;-1.382;2023-12-20T00:01:12;464.98;;;444.83;;
22060;SDS011;11194;48.092;-1.382;2023-12-20T00:03:38;472.05;;;451.67;;
22060;SDS011;11194;48.092;-1.382;2023-12-20T00:06:04;494.67;;;472.45;;
22060;SDS011;11194;48.092;-1.382;2023-12-20T00:08:30;503.05;;;480.33;;
22060;SDS011;11194;48.092;-1.382;2023-12-20T00:10:56;504.90;;;482.27;;
22060;SDS011;11194;48.092;-1.382;2023-12-20T00:13:22;523.83;;;500.15;;
22060;SDS011;11194;48.092;-1.382;2023-12-20T00:15:48;519.63;;;495.95;;
22060;SDS011;11194;48.092;-1.382;2023-12-20T00:18:15;527.58;;;503.40;;
22060;SDS011;11194;48.092;-1.382;2023-12-20T00:20:41;539.65;;;514.40;;
22060;SDS011;11194;48.092;-1.382;2023-12-20T00:23:07;528.78;;;503.85;;
22060;SDS011;11194;48.092;-1.382;2023-12-20T00:25:33;541.15;;;515.15;;
22060;SDS011;11194;48.092;-1.382;2023-12-20T00:28:00;540.92;;;514.10;;
22060;SDS011;11194;48.092;-1.382;2023-12-20T00:30:27;547.55;;;519.85;;
22060;SDS011;11194;48.092;-1.382;2023-12-20T00:32:53;544.30;;;516.70;;
22060;SDS011;11194;48.092;-1.382;2023-12-20T00:35:20;519.97;;;494.77;;
22060;SDS011;11194;48.092;-1.382;2023-12-20T00:37:46;496.75;;;473.48;;
22060;SDS011;11194;48.092;-1.382;2023-12-20T00:40:12;501.83;;;478.52;;
22060;SDS011;11194;48.092;-1.382;2023-12-20T00:42:38;513.33;;;489.35;;
22060;SDS011;11194;48.092;-1.382;2023-12-20T00:45:04;526.97;;;502.23;;
22060;SDS011;11194;48.092;-1.382;2023-12-20T00:47:31;531.97;;;506.73;;
22060;SDS011;11194;48.092;-1.382;2023-12-20T00:49:57;535.65;;;509.50;;
22060;SDS011;11194;48.092;-1.382;2023-12-20T00:52:23;547.55;;;521.28;;
22060;SDS011;11194;48.092;-1.382;2023-12-20T00:54:50;555.28;;;528.17;;
22060;SDS011;11194;48.092;-1.382;2023-12-20T00:57:17;571.88;;;542.70;;
22060;SDS011;11194;48.092;-1.382;2023-12-20T00:59:43;583.35;;;552.95;;
22060;SDS011;11194;48.092;-1.382;2023-12-20T01:02:09;589.50;;;558.50;;
22060;SDS011;11194;48.092;-1.382;2023-12-20T01:04:35;604.35;;;571.22;;
22060;SDS011;11194;48.092;-1.382;2023-12-20T01:07:01;591.33;;;558.95;;
22060;SDS011;11194;48.092;-1.382;2023-12-20T01:09:27;606.25;;;571.95;;
22060;SDS011;11194;48.092;-1.382;2023-12-20T01:11:53;613.53;;;578.35;;
22060;SDS011;11194;48.092;-1.382;2023-12-20T01:14:19;604.60;;;568.42;;
22060;SDS011;11194;48.092;-1.382;2023-12-20T01:16:46;607.30;;;570.45;;
22060;SDS011;11194;48.092;-1.382;2023-12-20T01:19:12;615.85;;;578.50;;
22060;SDS011;11194;48.092;-1.382;2023-12-20T01:21:39;618.53;;;580.67;;
22060;SDS011;11194;48.092;-1.382;2023-12-20T01:24:05;630.22;;;590.88;;
22060;SDS011;11194;48.092;-1.382;2023-12-20T01:26:31;635.85;;;595.38;;
22060;SDS011;11194;48.092;-1.382;2023-12-20T01:28:57;629.35;;;588.35;;
22060;SDS011;11194;48.092;-1.382;2023-12-20T01:31:23;625.33;;;583.67;;
22060;SDS011;11194;48.092;-1.382;2023-12-20T01:33:49;622.72;;;580.40;;
22060;SDS011;11194;48.092;-1.382;2023-12-20T01:36:15;621.95;;;578.78;;
22060;SDS011;11194;48.092;-1.382;2023-12-20T01:38:41;615.92;;;573.05;;
22060;SDS011;11194;48.092;-1.382;2023-12-20T01:41:07;620.25;;;577.38;;
22060;SDS011;11194;48.092;-1.382;2023-12-20T01:43:33;623.83;;;581.42;;
22060;SDS011;11194;48.092;-1.382;2023-12-20T01:45:59;626.92;;;584.33;;
22060;SDS011;11194;48.092;-1.382;2023-12-20T01:48:26;613.35;;;571.63;;
22060;SDS011;11194;48.092;-1.382;2023-12-20T01:50:53;633.35;;;591.00;;
22060;SDS011;11194;48.092;-1.382;2023-12-20T01:53:20;630.10;;;587.55;;
22060;SDS011;11194;48.092;-1.382;2023-12-20T01:55:47;633.30;;;590.50;;
22060;SDS011;11194;48.092;-1.382;2023-12-20T01:58:14;617.47;;;574.42;;
22060;SDS011;11194;48.092;-1.382;2023-12-20T02:00:41;616.38;;;573.70;;
22060;SDS011;11194;48.092;-1.382;2023-12-20T02:03:07;620.15;;;577.47;;
22060;SDS011;11194;48.092;-1.382;2023-12-20T02:05:33;616.75;;;574.60;;
22060;SDS011;11194;48.092;-1.382;2023-12-20T02:08:00;618.47;;;576.47;;
22060;SDS011;11194;48.092;-1.382;2023-12-20T02:10:26;622.88;;;579.53;;
22060;SDS011;11194;48.092;-1.382;2023-12-20T02:12:53;625.97;;;582.42;;
22060;SDS011;11194;48.092;-1.382;2023-12-20T02:15:19;625.67;;;582.05;;
22060;SDS011;11194;48.092;-1.382;2023-12-20T02:17:45;614.35;;;570.65;;
22060;SDS011;11194;48.092;-1.382;2023-12-20T02:20:12;625.78;;;580.83;;
22060;SDS011;11194;48.092;-1.382;2023-12-20T02:22:38;623.83;;;578.30;;
22060;SDS011;11194;48.092;-1.382;2023-12-20T02:25:04;613.17;;;567.90;;
22060;SDS011;11194;48.092;-1.382;2023-12-20T02:27:30;604.00;;;559.75;;
22060;SDS011;11194;48.092;-1.382;2023-12-20T02:29:56;599.28;;;555.47;;
22060;SDS011;11194;48.092;-1.382;2023-12-20T02:32:22;596.25;;;552.03;;
22060;SDS011;11194;48.092;-1.382;2023-12-20T02:34:53;593.10;;;549.30;;
22060;SDS011;11194;48.092;-1.382;2023-12-20T02:37:19;601.28;;;557.20;;
22060;SDS011;11194;48.092;-1.382;2023-12-20T02:39:45;588.17;;;544.40;;
22060;SDS011;11194;48.092;-1.382;2023-12-20T02:42:11;590.72;;;546.22;;
22060;SDS011;11194;48.092;-1.382;2023-12-20T02:44:37;612.53;;;565.28;;
22060;SDS011;11194;48.092;-1.382;2023-12-20T02:47:03;624.58;;;576.33;;
22060;SDS011;11194;48.092;-1.382;2023-12-20T02:49:29;636.03;;;586.15;;
22060;SDS011;11194;48.092;-1.382;2023-12-20T02:51:55;619.30;;;570.92;;
22060;SDS011;11194;48.092;-1.382;2023-12-20T02:54:21;622.42;;;575.13;;
22060;SDS011;11194;48.092;-1.382;2023-12-20T02:56:47;615.30;;;568.47;;
22060;SDS011;11194;48.092;-1.382;2023-12-20T02:59:14;608.05;;;562.38;;
22060;SDS011;11194;48.092;-1.382;2023-12-20T03:01:46;597.08;;;552.13;;
22060;SDS011;11194;48.092;-1.382;2023-12-20T03:04:12;607.83;;;563.22;;
22060;SDS011;11194;48.092;-1.382;2023-12-20T03:06:38;588.63;;;545.03;;
22060;SDS011;11194;48.092;-1.382;2023-12-20T03:09:04;594.30;;;551.22;;
22060;SDS011;11194;48.092;-1.382;2023-12-20T03:11:30;592.90;;;550.28;;
22060;SDS011;11194;48.092;-1.382;2023-12-20T03:13:57;599.80;;;556.90;;
22060;SDS011;11194;48.092;-1.382;2023-12-20T03:16:23;600.33;;;557.83;;
22060;SDS011;11194;48.092;-1.382;2023-12-20T03:18:49;609.78;;;566.15;;
22060;SDS011;11194;48.092;-1.382;2023-12-20T03:21:15;606.15;;;561.22;;
22060;SDS011;11194;48.092;-1.382;2023-12-20T03:23:41;614.85;;;569.35;;
22060;SDS011;11194;48.092;-1.382;2023-12-20T03:26:08;625.30;;;578.97;;
22060;SDS011;11194;48.092;-1.382;2023-12-20T03:28:35;618.50;;;572.65;;
22060;SDS011;11194;48.092;-1.382;2023-12-20T03:31:01;617.00;;;570.97;;
22060;SDS011;11194;48.092;-1.382;2023-12-20T03:33:28;617.47;;;570.10;;
22060;SDS011;11194;48.092;-1.382;2023-12-20T03:35:54;616.92;;;569.60;;
22060;SDS011;11194;48.092;-1.382;2023-12-20T03:38:20;604.97;;;557.90;;
22060;SDS011;11194;48.092;-1.382;2023-12-20T03:40:48;612.13;;;565.35;;
22060;SDS011;11194;48.092;-1.382;2023-12-20T03:43:15;604.58;;;557.83;;
22060;SDS011;11194;48.092;-1.382;2023-12-20T03:45:41;604.97;;;557.88;;
22060;SDS011;11194;48.092;-1.382;2023-12-20T03:48:07;599.95;;;553.00;;
22060;SDS011;11194;48.092;-1.382;2023-12-20T03:50:34;588.78;;;541.53;;
22060;SDS011;11194;48.092;-1.382;2023-12-20T03:53:00;591.05;;;543.60;;
22060;SDS011;11194;48.092;-1.382;2023-12-20T03:55:26;567.55;;;520.20;;
22060;SDS011;11194;48.092;-1.382;2023-12-20T03:57:52;570.53;;;523.60;;
22060;SDS011;11194;48.092;-1.382;2023-12-20T04:00:19;606.40;;;558.78;;
22060;SDS011;11194;48.092;-1.382;2023-12-20T04:02:45;597.38;;;550.72;;
22060;SDS011;11194;48.092;-1.382;2023-12-20T04:05:11;580.40;;;534.20;;
22060;SDS011;11194;48.092;-1.382;2023-12-20T04:07:37;587.00;;;540.50;;
22060;SDS011;11194;48.092;-1.382;2023-12-20T04:10:03;584.50;;;537.55;;
22060;SDS011;11194;48.092;-1.382;2023-12-20T04:12:30;582.53;;;535.95;;
22060;SDS011;11194;48.092;-1.382;2023-12-20T04:14:57;577.67;;;531.17;;
22060;SDS011;11194;48.092;-1.382;2023-12-20T04:17:23;594.65;;;548.13;;
22060;SDS011;11194;48.092;-1.382;2023-12-20T04:19:49;593.58;;;546.22;;
22060;SDS011;11194;48.092;-1.382;2023-12-20T04:22:16;589.28;;;541.85;;
22060;SDS011;11194;48.092;-1.382;2023-12-20T04:24:42;570.17;;;524.05;;
22060;SDS011;11194;48.092;-1.382;2023-12-20T04:27:08;579.55;;;533.17;;
22060;SDS011;11194;48.092;-1.382;2023-12-20T04:29:35;598.47;;;551.67;;
22060;SDS011;11194;48.092;-1.382;2023-12-20T04:32:01;610.28;;;563.75;;
22060;SDS011;11194;48.092;-1.382;2023-12-20T04:34:27;606.13;;;559.90;;
22060;SDS011;11194;48.092;-1.382;2023-12-20T04:36:53;568.63;;;522.03;;
22060;SDS011;11194;48.092;-1.382;2023-12-20T04:39:19;585.75;;;539.28;;
22060;SDS011;11194;48.092;-1.382;2023-12-20T04:41:45;599.42;;;552.90;;
22060;SDS011;11194;48.092;-1.382;2023-12-20T04:44:12;575.13;;;529.13;;
22060;SDS011;11194;48.092;-1.382;2023-12-20T04:46:39;603.25;;;557.00;;
22060;SDS011;11194;48.092;-1.382;2023-12-20T04:49:05;615.80;;;569.35;;
22060;SDS011;11194;48.092;-1.382;2023-12-20T04:51:34;592.47;;;547.13;;
22060;SDS011;11194;48.092;-1.382;2023-12-20T04:54:00;589.85;;;544.63;;
22060;SDS011;11194;48.092;-1.382;2023-12-20T04:56:26;604.88;;;559.22;;
22060;SDS011;11194;48.092;-1.382;2023-12-20T04:58:53;601.22;;;555.38;;
22060;SDS011;11194;48.092;-1.382;2023-12-20T05:01:19;627.40;;;581.38;;
22060;SDS011;11194;48.092;-1.382;2023-12-20T05:03:45;623.28;;;577.67;;
22060;SDS011;11194;48.092;-1.382;2023-12-20T05:06:11;622.67;;;577.30;;
22060;SDS011;11194;48.092;-1.382;2023-12-20T05:08:37;590.88;;;546.88;;
22060;SDS011;11194;48.092;-1.382;2023-12-20T05:11:04;574.08;;;530.60;;
22060;SDS011;11194;48.092;-1.382;2023-12-20T05:13:30;589.47;;;545.22;;
22060;SDS011;11194;48.092;-1.382;2023-12-20T05:15:56;610.83;;;566.70;;
22060;SDS011;11194;48.092;-1.382;2023-12-20T05:18:22;609.97;;;566.63;;
22060;SDS011;11194;48.092;-1.382;2023-12-20T05:20:49;603.50;;;560.15;;
22060;SDS011;11194;48.092;-1.382;2023-12-20T05:23:15;604.88;;;561.85;;
22060;SDS011;11194;48.092;-1.382;2023-12-20T05:25:42;594.78;;;552.40;;
22060;SDS011;11194;48.092;-1.382;2023-12-20T05:28:08;583.08;;;541.08;;
22060;SDS011;11194;48.092;-1.382;2023-12-20T05:30:34;599.55;;;557.33;;
22060;SDS011;11194;48.092;-1.382;2023-12-20T05:33:00;611.15;;;569.53;;
22060;SDS011;11194;48.092;-1.382;2023-12-20T05:35:26;628.22;;;585.47;;
22060;SDS011;11194;48.092;-1.382;2023-12-20T05:37:52;622.67;;;579.00;;
22060;SDS011;11194;48.092;-1.382;2023-12-20T05:40:18;633.45;;;589.15;;
22060;SDS011;11194;48.092;-1.382;2023-12-20T05:42:44;624.83;;;580.58;;
22060;SDS011;11194;48.092;-1.382;2023-12-20T05:45:10;648.05;;;602.95;;
22060;SDS011;11194;48.092;-1.382;2023-12-20T05:47:36;636.70;;;591.50;;
22060;SDS011;11194;48.092;-1.382;2023-12-20T05:50:02;634.70;;;588.85;;
22060;SDS011;11194;48.092;-1.382;2023-12-20T05:52:29;623.97;;;579.13;;
22060;SDS011;11194;48.092;-1.382;2023-12-20T05:54:55;611.40;;;567.55;;
22060;SDS011;11194;48.092;-1.382;2023-12-20T05:57:23;622.10;;;577.88;;
22060;SDS011;11194;48.092;-1.382;2023-12-20T05:59:49;617.35;;;574.17;;
22060;SDS011;11194;48.092;-1.382;2023-12-20T06:02:15;614.00;;;572.20;;
22060;SDS011;11194;48.092;-1.382;2023-12-20T06:04:44;580.42;;;538.90;;
22060;SDS011;11194;48.092;-1.382;2023-12-20T06:07:13;590.63;;;548.95;;
22060;SDS011;11194;48.092;-1.382;2023-12-20T06:09:40;598.22;;;556.47;;
22060;SDS011;11194;48.092;-1.382;2023-12-20T06:12:06;606.22;;;562.70;;
22060;SDS011;11194;48.092;-1.382;2023-12-20T06:14:33;593.42;;;552.17;;
22060;SDS011;11194;48.092;-1.382;2023-12-20T06:16:59;587.55;;;546.17;;
22060;SDS011;11194;48.092;-1.382;2023-12-20T06:19:29;584.58;;;541.67;;
22060;SDS011;11194;48.092;-1.382;2023-12-20T06:21:55;560.75;;;520.25;;
22060;SDS011;11194;48.092;-1.382;2023-12-20T06:24:21;593.63;;;552.17;;
22060;SDS011;11194;48.092;-1.382;2023-12-20T06:26:47;601.28;;;559.53;;
22060;SDS011;11194;48.092;-1.382;2023-12-20T06:29:13;604.20;;;561.80;;
22060;SDS011;11194;48.092;-1.382;2023-12-20T06:31:39;604.75;;;563.10;;
22060;SDS011;11194;48.092;-1.382;2023-12-20T06:34:05;617.33;;;573.60;;
22060;SDS011;11194;48.092;-1.382;2023-12-20T06:36:31;619.53;;;575.53;;
22060;SDS011;11194;48.092;-1.382;2023-12-20T06:38:57;626.90;;;581.72;;
22060;SDS011;11194;48.092;-1.382;2023-12-20T06:41:23;617.33;;;572.15;;
22060;SDS011;11194;48.092;-1.382;2023-12-20T06:43:50;628.28;;;582.65;;
22060;SDS011;11194;48.092;-1.382;2023-12-20T06:46:18;623.83;;;578.58;;
22060;SDS011;11194;48.092;-1.382;2023-12-20T06:48:44;618.58;;;573.97;;
22060;SDS011;11194;48.092;-1.382;2023-12-20T06:51:16;604.80;;;560.92;;
22060;SDS011;11194;48.092;-1.382;2023-12-20T06:53:44;593.45;;;550.33;;
22060;SDS011;11194;48.092;-1.382;2023-12-20T06:56:11;590.55;;;548.60;;
22060;SDS011;11194;48.092;-1.382;2023-12-20T06:58:37;575.92;;;535.30;;
22060;SDS011;11194;48.092;-1.382;2023-12-20T07:01:03;593.55;;;552.15;;
22060;SDS011;11194;48.092;-1.382;2023-12-20T07:03:30;590.63;;;550.08;;
22060;SDS011;11194;48.092;-1.382;2023-12-20T07:05:57;571.00;;;531.67;;
22060;SDS011;11194;48.092;-1.382;2023-12-20T07:08:23;593.65;;;553.72;;
22060;SDS011;11194;48.092;-1.382;2023-12-20T07:10:49;593.47;;;553.38;;
22060;SDS011;11194;48.092;-1.382;2023-12-20T07:13:15;590.50;;;549.70;;
22060;SDS011;11194;48.092;-1.382;2023-12-20T07:15:41;577.15;;;537.60;;
22060;SDS011;11194;48.092;-1.382;2023-12-20T07:18:07;575.88;;;535.58;;
22060;SDS011;11194;48.092;-1.382;2023-12-20T07:20:33;594.80;;;554.42;;
22060;SDS011;11194;48.092;-1.382;2023-12-20T07:22:59;584.17;;;543.47;;
22060;SDS011;11194;48.092;-1.382;2023-12-20T07:25:25;582.72;;;541.95;;
22060;SDS011;11194;48.092;-1.382;2023-12-20T07:27:52;597.47;;;556.20;;
22060;SDS011;11194;48.092;-1.382;2023-12-20T07:30:18;606.30;;;564.35;;
22060;SDS011;11194;48.092;-1.382;2023-12-20T07:32:44;610.00;;;567.13;;
22060;SDS011;11194;48.092;-1.382;2023-12-20T07:35:10;610.90;;;568.25;;
22060;SDS011;11194;48.092;-1.382;2023-12-20T07:37:36;605.88;;;563.00;;
22060;SDS011;11194;48.092;-1.382;2023-12-20T07:40:02;597.03;;;555.17;;
22060;SDS011;11194;48.092;-1.382;2023-12-20T07:42:28;607.75;;;565.47;;
22060;SDS011;11194;48.092;-1.382;2023-12-20T07:44:54;597.08;;;554.85;;
22060;SDS011;11194;48.092;-1.382;2023-12-20T07:47:20;617.60;;;574.33;;
22060;SDS011;11194;48.092;-1.382;2023-12-20T07:49:48;623.40;;;579.67;;
22060;SDS011;11194;48.092;-1.382;2023-12-20T07:52:14;609.63;;;566.85;;
22060;SDS011;11194;48.092;-1.382;2023-12-20T07:54:41;600.00;;;558.13;;
22060;SDS011;11194;48.092;-1.382;2023-12-20T07:57:07;602.45;;;559.58;;
22060;SDS011;11194;48.092;-1.382;2023-12-20T07:59:33;595.08;;;553.33;;
22060;SDS011;11194;48.092;-1.382;2023-12-20T08:01:59;600.10;;;558.33;;
22060;SDS011;11194;48.092;-1.382;2023-12-20T08:04:25;598.00;;;556.38;;
22060;SDS011;11194;48.092;-1.382;2023-12-20T08:06:52;598.58;;;556.63;;
22060;SDS011;11194;48.092;-1.382;2023-12-20T08:09:18;603.03;;;560.30;;
22060;SDS011;11194;48.092;-1.382;2023-12-20T08:11:47;615.40;;;571.70;;
22060;SDS011;11194;48.092;-1.382;2023-12-20T08:14:13;620.60;;;577.28;;
22060;SDS011;11194;48.092;-1.382;2023-12-20T08:16:39;598.75;;;555.47;;
22060;SDS011;11194;48.092;-1.382;2023-12-20T08:19:06;622.38;;;578.33;;
22060;SDS011;11194;48.092;-1.382;2023-12-20T08:21:32;595.65;;;553.13;;
22060;SDS011;11194;48.092;-1.382;2023-12-20T08:23:58;614.20;;;571.92;;
22060;SDS011;11194;48.092;-1.382;2023-12-20T08:26:25;616.72;;;574.10;;
22060;SDS011;11194;48.092;-1.382;2023-12-20T08:28:51;613.03;;;570.65;;
22060;SDS011;11194;48.092;-1.382;2023-12-20T08:31:18;623.22;;;580.15;;
22060;SDS011;11194;48.092;-1.382;2023-12-20T08:33:44;625.63;;;582.58;;
22060;SDS011;11194;48.092;-1.382;2023-12-20T08:36:11;646.45;;;601.90;;
22060;SDS011;11194;48.092;-1.382;2023-12-20T08:38:37;620.25;;;576.60;;
22060;SDS011;11194;48.092;-1.382;2023-12-20T08:41:03;632.35;;;588.08;;
22060;SDS011;11194;48.092;-1.382;2023-12-20T08:43:32;621.60;;;577.17;;
22060;SDS011;11194;48.092;-1.382;2023-12-20T08:45:58;603.40;;;560.25;;
22060;SDS011;11194;48.092;-1.382;2023-12-20T08:48:24;633.10;;;589.05;;
22060;SDS011;11194;48.092;-1.382;2023-12-20T08:50:50;618.25;;;575.65;;
22060;SDS011;11194;48.092;-1.382;2023-12-20T08:53:17;588.25;;;548.00;;
22060;SDS011;11194;48.092;-1.382;2023-12-20T08:55:43;611.95;;;570.20;;
22060;SDS011;11194;48.092;-1.382;2023-12-20T08:58:10;625.10;;;583.10;;
22060;SDS011;11194;48.092;-1.382;2023-12-20T09:00:36;619.75;;;578.08;;
22060;SDS011;11194;48.092;-1.382;2023-12-20T09:03:03;621.08;;;578.13;;
22060;SDS011;11194;48.092;-1.382;2023-12-20T09:05:29;632.22;;;588.85;;
22060;SDS011;11194;48.092;-1.382;2023-12-20T09:07:55;621.10;;;578.33;;
22060;SDS011;11194;48.092;-1.382;2023-12-20T09:10:21;635.50;;;591.85;;
22060;SDS011;11194;48.092;-1.382;2023-12-20T09:12:50;641.67;;;598.15;;
22060;SDS011;11194;48.092;-1.382;2023-12-20T09:15:16;648.60;;;604.05;;
22060;SDS011;11194;48.092;-1.382;2023-12-20T09:17:42;633.22;;;588.67;;
22060;SDS011;11194;48.092;-1.382;2023-12-20T09:20:09;631.85;;;587.85;;
22060;SDS011;11194;48.092;-1.382;2023-12-20T09:22:35;628.17;;;584.58;;
22060;SDS011;11194;48.092;-1.382;2023-12-20T09:25:03;635.80;;;593.17;;
22060;SDS011;11194;48.092;-1.382;2023-12-20T09:27:29;629.70;;;587.75;;
22060;SDS011;11194;48.092;-1.382;2023-12-20T09:29:55;634.35;;;591.40;;
22060;SDS011;11194;48.092;-1.382;2023-12-20T09:32:21;617.33;;;575.70;;
22060;SDS011;11194;48.092;-1.382;2023-12-20T09:34:47;633.10;;;591.42;;
22060;SDS011;11194;48.092;-1.382;2023-12-20T09:37:13;603.10;;;565.13;;
22060;SDS011;11194;48.092;-1.382;2023-12-20T09:39:39;609.65;;;571.60;;
22060;SDS011;11194;48.092;-1.382;2023-12-20T09:42:06;593.42;;;557.95;;
22060;SDS011;11194;48.092;-1.382;2023-12-20T09:44:32;589.40;;;554.70;;
22060;SDS011;11194;48.092;-1.382;2023-12-20T09:47:02;576.00;;;542.72;;
22060;SDS011;11194;48.092;-1.382;2023-12-20T09:49:29;546.17;;;515.47;;
22060;SDS011;11194;48.092;-1.382;2023-12-20T09:51:56;533.85;;;505.15;;
22060;SDS011;11194;48.092;-1.382;2023-12-20T09:54:22;504.58;;;478.73;;
22060;SDS011;11194;48.092;-1.382;2023-12-20T09:56:49;479.63;;;455.88;;
22060;SDS011;11194;48.092;-1.382;2023-12-20T09:59:15;460.10;;;438.35;;
22060;SDS011;11194;48.092;-1.382;2023-12-20T10:01:42;411.60;;;393.33;;
22060;SDS011;11194;48.092;-1.382;2023-12-20T10:04:09;375.58;;;359.55;;
22060;SDS011;11194;48.092;-1.382;2023-12-20T10:06:42;312.88;;;299.95;;
22060;SDS011;11194;48.092;-1.382;2023-12-20T10:09:09;265.33;;;255.10;;
22060;SDS011;11194;48.092;-1.382;2023-12-20T10:11:37;226.55;;;218.15;;
22060;SDS011;11194;48.092;-1.382;2023-12-20T10:14:04;119.60;;;115.20;;
22060;SDS011;11194;48.092;-1.382;2023-12-20T10:16:30;53.22;;;51.17;;
22060;SDS011;11194;48.092;-1.382;2023-12-20T10:18:57;16.55;;;15.90;;
22060;SDS011;11194;48.092;-1.382;2023-12-20T10:21:24;15.30;;;14.70;;
22060;SDS011;11194;48.092;-1.382;2023-12-20T10:23:54;6.32;;;6.13;;
22060;SDS011;11194;48.092;-1.382;2023-12-20T10:26:24;12.50;;;12.00;;
22060;SDS011;11194;48.092;-1.382;2023-12-20T10:28:54;11.98;;;11.52;;
22060;SDS011;11194;48.092;-1.382;2023-12-20T10:31:27;9.07;;;8.77;;
22060;SDS011;11194;48.092;-1.382;2023-12-20T10:33:53;39.78;;;38.17;;
22060;SDS011;11194;48.092;-1.382;2023-12-20T10:36:21;81.28;;;78.18;;
22060;SDS011;11194;48.092;-1.382;2023-12-20T10:38:49;200.48;;;193.55;;
22060;SDS011;11194;48.092;-1.382;2023-12-20T10:41:17;105.07;;;101.18;;
22060;SDS011;11194;48.092;-1.382;2023-12-20T10:43:46;14.95;;;14.35;;
22060;SDS011;11194;48.092;-1.382;2023-12-20T10:46:12;4.55;;;4.38;;
22060;SDS011;11194;48.092;-1.382;2023-12-20T10:48:39;1.05;;;1.05;;
22060;SDS011;11194;48.092;-1.382;2023-12-20T10:51:05;0.80;;;0.80;;
22060;SDS011;11194;48.092;-1.382;2023-12-20T10:53:32;0.70;;;0.70;;
22060;SDS011;11194;48.092;-1.382;2023-12-20T10:56:00;0.68;;;0.68;;
22060;SDS011;11194;48.092;-1.382;2023-12-20T10:58:26;0.40;;;0.40;;
22060;SDS011;11194;48.092;-1.382;2023-12-20T11:00:55;0.40;;;0.40;;
22060;SDS011;11194;48.092;-1.382;2023-12-20T11:03:26;0.30;;;0.30;;
22060;SDS011;11194;48.092;-1.382;2023-12-20T11:08:36;0.20;;;0.20;;
22060;SDS011;11194;48.092;-1.382;2023-12-20T11:11:12;0.20;;;0.20;;
22060;SDS011;11194;48.092;-1.382;2023-12-20T11:13:48;0.20;;;0.20;;
22060;SDS011;11194;48.092;-1.382;2023-12-20T11:16:19;0.15;;;0.15;;
22060;SDS011;11194;48.092;-1.382;2023-12-20T11:18:45;0.20;;;0.20;;
22060;SDS011;11194;48.092;-1.382;2023-12-20T11:21:11;0.20;;;0.20;;
22060;SDS011;11194;48.092;-1.382;2023-12-20T11:23:39;0.20;;;0.20;;
22060;SDS011;11194;48.092;-1.382;2023-12-20T11:26:08;0.20;;;0.20;;
22060;SDS011;11194;48.092;-1.382;2023-12-20T11:28:34;0.10;;;0.10;;
22060;SDS011;11194;48.092;-1.382;2023-12-20T11:31:00;0.10;;;0.10;;
22060;SDS011;11194;48.092;-1.382;2023-12-20T11:35:56;0.10;;;0.10;;
22060;SDS011;11194;48.092;-1.382;2023-12-20T11:38:23;0.20;;;0.20;;
22060;SDS011;11194;48.092;-1.382;2023-12-20T11:40:49;0.30;;;0.30;;
22060;SDS011;11194;48.092;-1.382;2023-12-20T11:43:37;1.48;;;1.48;;
22060;SDS011;11194;48.092;-1.382;2023-12-20T11:46:05;4.32;;;4.18;;
22060;SDS011;11194;48.092;-1.382;2023-12-20T11:48:35;17.88;;;17.17;;
22060;SDS011;11194;48.092;-1.382;2023-12-20T11:51:01;19.65;;;18.88;;
22060;SDS011;11194;48.092;-1.382;2023-12-20T11:53:29;4.10;;;4.00;;
22060;SDS011;11194;48.092;-1.382;2023-12-20T11:55:57;8.43;;;8.13;;
22060;SDS011;11194;48.092;-1.382;2023-12-20T11:58:23;18.95;;;18.23;;
22060;SDS011;11194;48.092;-1.382;2023-12-20T12:00:52;13.27;;;12.77;;
22060;SDS011;11194;48.092;-1.382;2023-12-20T12:03:18;2.83;;;2.72;;
22060;SDS011;11194;48.092;-1.382;2023-12-20T12:05:46;0.82;;;0.82;;
22060;SDS011;11194;48.092;-1.382;2023-12-20T12:08:13;0.40;;;0.40;;
22060;SDS011;11194;48.092;-1.382;2023-12-20T12:10:39;0.30;;;0.30;;
22060;SDS011;11194;48.092;-1.382;2023-12-20T12:13:05;0.20;;;0.20;;
22060;SDS011;11194;48.092;-1.382;2023-12-20T12:15:31;0.20;;;0.20;;
22060;SDS011;11194;48.092;-1.382;2023-12-20T12:17:57;0.20;;;0.20;;
22060;SDS011;11194;48.092;-1.382;2023-12-20T12:20:24;0.20;;;0.20;;
22060;SDS011;11194;48.092;-1.382;2023-12-20T12:23:04;0.20;;;0.20;;
22060;SDS011;11194;48.092;-1.382;2023-12-20T12:25:31;0.20;;;0.20;;
22060;SDS011;11194;48.092;-1.382;2023-12-20T12:27:58;0.15;;;0.15;;
22060;SDS011;11194;48.092;-1.382;2023-12-20T12:30:24;0.20;;;0.20;;
22060;SDS011;11194;48.092;-1.382;2023-12-20T12:32:51;0.20;;;0.20;;
22060;SDS011;11194;48.092;-1.382;2023-12-20T12:35:18;0.30;;;0.30;;
22060;SDS011;11194;48.092;-1.382;2023-12-20T12:37:44;0.50;;;0.50;;
22060;SDS011;11194;48.092;-1.382;2023-12-20T12:40:11;1.65;;;1.65;;
22060;SDS011;11194;48.092;-1.382;2023-12-20T12:42:38;2.20;;;2.10;;
22060;SDS011;11194;48.092;-1.382;2023-12-20T12:45:04;0.70;;;0.70;;
22060;SDS011;11194;48.092;-1.382;2023-12-20T12:47:30;0.20;;;0.20;;
22060;SDS011;11194;48.092;-1.382;2023-12-20T12:49:56;0.40;;;0.40;;
22060;SDS011;11194;48.092;-1.382;2023-12-20T12:52:23;0.90;;;0.90;;
22060;SDS011;11194;48.092;-1.382;2023-12-20T12:54:49;3.53;;;3.42;;
22060;SDS011;11194;48.092;-1.382;2023-12-20T12:57:15;12.77;;;12.27;;
22060;SDS011;11194;48.092;-1.382;2023-12-20T12:59:42;21.33;;;20.48;;
22060;SDS011;11194;48.092;-1.382;2023-12-20T13:02:10;12.20;;;11.70;;
22060;SDS011;11194;48.092;-1.382;2023-12-20T13:04:37;19.85;;;19.08;;
22060;SDS011;11194;48.092;-1.382;2023-12-20T13:07:03;47.80;;;45.90;;
22060;SDS011;11194;48.092;-1.382;2023-12-20T13:09:29;49.80;;;47.83;;
22060;SDS011;11194;48.092;-1.382;2023-12-20T13:11:55;76.75;;;73.80;;
22060;SDS011;11194;48.092;-1.382;2023-12-20T13:14:21;116.88;;;112.60;;
22060;SDS011;11194;48.092;-1.382;2023-12-20T13:16:47;183.68;;;177.20;;
22060;SDS011;11194;48.092;-1.382;2023-12-20T13:19:13;167.02;;;161.07;;
22060;SDS011;11194;48.092;-1.382;2023-12-20T13:21:39;83.38;;;80.22;;
22060;SDS011;11194;48.092;-1.382;2023-12-20T13:24:06;118.30;;;113.97;;
22060;SDS011;11194;48.092;-1.382;2023-12-20T13:26:32;136.45;;;131.50;;
22060;SDS011;11194;48.092;-1.382;2023-12-20T13:28:58;191.48;;;184.82;;
22060;SDS011;11194;48.092;-1.382;2023-12-20T13:31:24;92.88;;;89.38;;
22060;SDS011;11194;48.092;-1.382;2023-12-20T13:33:50;83.03;;;79.85;;
22060;SDS011;11194;48.092;-1.382;2023-12-20T13:36:17;72.10;;;69.30;;
22060;SDS011;11194;48.092;-1.382;2023-12-20T13:38:44;68.18;;;65.47;;
22060;SDS011;11194;48.092;-1.382;2023-12-20T13:41:10;68.00;;;65.30;;
22060;SDS011;11194;48.092;-1.382;2023-12-20T13:43:37;100.45;;;96.70;;
22060;SDS011;11194;48.092;-1.382;2023-12-20T13:46:03;116.82;;;112.50;;
22060;SDS011;11194;48.092;-1.382;2023-12-20T13:48:29;115.93;;;111.65;;
22060;SDS011;11194;48.092;-1.382;2023-12-20T13:50:55;147.90;;;142.60;;
22060;SDS011;11194;48.092;-1.382;2023-12-20T13:53:21;178.80;;;172.45;;
22060;SDS011;11194;48.092;-1.382;2023-12-20T13:55:47;171.50;;;165.43;;